createdAt,value
2017-08-27T11:18:23.619Z,27.96
2017-08-27T11:20:54.034Z,28.51
2017-08-27T11:23:23.746Z,28.82
2017-08-27T11:25:53.458Z,28.93
2017-08-27T11:28:23.923Z,28.97
2017-08-27T11:30:53.707Z,28.99
2017-08-27T11:33:23.507Z,28.97
2017-08-27T11:35:53.504Z,28.96
2017-08-27T11:38:23.468Z,28.95
2017-08-27T11:40:53.814Z,28.93
2017-08-27T11:43:23.859Z,28.92
2017-08-27T11:45:53.596Z,28.90
2017-08-27T11:48:23.244Z,28.89
2017-08-27T11:50:53.524Z,28.70
2017-08-27T11:53:23.432Z,28.88
2017-08-27T11:55:53.075Z,28.88
2017-08-27T11:58:53.606Z,28.77
2017-08-27T12:01:23.577Z,28.87
2017-08-27T12:03:53.534Z,28.86
2017-08-27T12:06:23.226Z,28.77
2017-08-27T12:08:52.943Z,28.86
2017-08-27T12:11:23.156Z,28.76
2017-08-27T12:13:52.947Z,28.85
2017-08-27T12:16:22.741Z,28.85
2017-08-27T12:18:52.946Z,28.83
2017-08-27T12:21:23.082Z,28.83
2017-08-27T12:23:52.889Z,28.72
2017-08-27T12:26:23.312Z,28.82
2017-08-27T12:28:53.220Z,28.73
2017-08-27T12:31:23.043Z,28.83
2017-08-27T12:33:53.360Z,28.84
2017-08-27T12:36:23.644Z,28.75
2017-08-27T12:38:53.667Z,28.83
2017-08-27T12:41:26.261Z,28.85
2017-08-27T12:43:56.784Z,28.85
2017-08-27T12:46:27.278Z,28.85
2017-08-27T12:48:57.121Z,28.78
2017-08-27T12:51:26.788Z,28.77
2017-08-27T12:53:59.443Z,28.66
2017-08-27T12:56:29.225Z,28.65
2017-08-27T12:58:59.723Z,28.76
2017-08-27T13:01:29.662Z,28.75
2017-08-27T13:03:59.947Z,28.67
2017-08-27T13:06:30.438Z,28.59
2017-08-27T13:09:00.214Z,28.58
2017-08-27T13:11:30.155Z,28.80
2017-08-27T13:14:02.608Z,28.74
2017-08-27T13:16:32.338Z,28.67
2017-08-27T13:19:02.199Z,28.87
2017-08-27T13:21:32.727Z,28.88
2017-08-27T13:24:02.517Z,28.79
2017-08-27T13:26:32.805Z,28.89
2017-08-27T13:29:03.546Z,28.89
2017-08-27T13:31:33.760Z,28.90
2017-08-27T13:34:03.980Z,28.80
2017-08-27T13:36:34.022Z,28.90
2017-08-27T13:39:05.581Z,28.89
2017-08-27T13:41:36.510Z,28.90
2017-08-27T13:44:07.531Z,28.81
2017-08-27T13:46:50.052Z,28.92
2017-08-27T13:49:36.906Z,28.77
2017-08-27T13:52:09.669Z,28.98
2017-08-27T13:54:57.636Z,28.96
2017-08-27T13:57:27.637Z,28.58
2017-08-27T13:59:59.097Z,28.95
2017-08-27T14:02:33.371Z,28.77
2017-08-27T14:05:13.411Z,29.00
2017-08-27T14:07:43.447Z,29.02
2017-08-27T14:10:13.368Z,29.01
2017-08-27T14:12:44.194Z,28.99
2017-08-27T14:15:14.356Z,28.97
2017-08-27T14:17:44.133Z,28.87
2017-08-27T14:20:14.363Z,28.70
2017-08-27T14:22:44.352Z,28.97
2017-08-27T14:25:14.147Z,28.97
2017-08-27T14:27:44.275Z,28.97
2017-08-27T14:30:14.089Z,28.97
2017-08-27T14:32:43.816Z,28.97
2017-08-27T14:35:14.585Z,28.97
2017-08-27T14:37:44.263Z,28.97
2017-08-27T14:40:14.795Z,28.96
2017-08-27T14:42:44.778Z,28.87
2017-08-27T14:45:14.531Z,28.73
2017-08-27T14:47:44.436Z,28.81
2017-08-27T14:50:14.559Z,28.98
2017-08-27T14:52:44.405Z,28.70
2017-08-27T14:55:14.118Z,28.97
2017-08-27T14:57:44.311Z,28.96
2017-08-27T15:00:14.414Z,28.97
2017-08-27T15:02:44.126Z,28.98
2017-08-27T15:05:14.158Z,28.99
2017-08-27T15:07:44.000Z,28.69
2017-08-27T15:10:13.803Z,28.80
2017-08-27T15:12:43.899Z,28.69
2017-08-27T15:15:13.988Z,28.96
2017-08-27T15:17:44.562Z,28.68
2017-08-27T15:20:17.154Z,28.96
2017-08-27T15:22:46.922Z,28.95
2017-08-27T15:25:18.730Z,28.96
2017-08-27T15:27:48.843Z,28.98
2017-08-27T15:30:18.515Z,28.98
2017-08-27T15:32:48.531Z,28.99
2017-08-27T15:35:18.633Z,28.71
2017-08-27T15:37:48.290Z,28.98
2017-08-27T15:40:18.169Z,28.97
2017-08-27T15:42:48.288Z,28.96
2017-08-27T15:45:17.977Z,28.97
2017-08-27T15:47:48.030Z,28.99
2017-08-27T15:50:20.435Z,29.02
2017-08-27T15:52:55.046Z,28.49
2017-08-27T15:55:50.865Z,28.97
2017-08-27T15:58:24.995Z,28.78
2017-08-27T16:01:05.015Z,28.60
2017-08-27T16:04:01.165Z,28.81
2017-08-27T16:06:35.431Z,28.96
2017-08-27T16:09:19.679Z,28.72
2017-08-27T16:11:57.444Z,28.66
2017-08-27T16:14:27.844Z,29.00
2017-08-27T16:16:58.189Z,28.89
2017-08-27T16:19:28.378Z,28.89
2017-08-27T16:21:59.689Z,28.72
2017-08-27T16:24:32.336Z,28.54
2017-08-27T16:27:04.413Z,28.89
2017-08-27T16:29:34.487Z,28.91
2017-08-27T16:32:05.863Z,28.93
2017-08-27T16:34:35.789Z,28.84
2017-08-27T16:37:06.182Z,28.92
2017-08-27T16:39:37.434Z,28.92
2017-08-27T16:42:09.140Z,28.71
2017-08-27T16:44:39.301Z,28.78
2017-08-27T16:47:17.704Z,28.88
2017-08-27T16:49:47.906Z,28.73
2017-08-27T16:52:20.258Z,28.97
2017-08-27T16:54:51.105Z,28.94
2017-08-27T16:57:21.508Z,28.45
2017-08-27T16:59:51.908Z,28.85
2017-08-27T17:02:23.580Z,28.71
2017-08-27T17:04:59.828Z,28.27
2017-08-27T17:07:34.477Z,28.52
2017-08-27T17:10:04.848Z,28.85
2017-08-27T17:12:35.996Z,28.88
2017-08-27T17:15:06.420Z,28.88
2017-08-27T17:17:36.292Z,28.85
2017-08-27T17:20:07.167Z,28.61
2017-08-27T17:22:37.220Z,28.74
2017-08-27T17:25:07.248Z,28.77
2017-08-27T17:27:37.397Z,28.79
2017-08-27T17:30:07.784Z,28.79
2017-08-27T17:32:39.020Z,28.71
2017-08-27T17:35:09.328Z,28.82
2017-08-27T17:37:39.862Z,28.55
2017-08-27T17:40:10.043Z,28.83
2017-08-27T17:42:40.262Z,28.74
2017-08-27T17:45:10.381Z,28.86
2017-08-27T17:47:41.229Z,28.67
2017-08-27T17:50:12.762Z,28.70
2017-08-27T17:52:43.535Z,28.88
2017-08-27T17:55:14.650Z,28.81
2017-08-27T17:57:45.252Z,28.83
2017-08-27T18:00:15.360Z,28.81
2017-08-27T18:02:45.863Z,28.81
2017-08-27T18:05:18.492Z,28.88
2017-08-27T18:07:50.512Z,28.91
2017-08-27T18:10:23.893Z,28.73
2017-08-27T18:12:54.388Z,28.93
2017-08-27T18:15:25.976Z,28.94
2017-08-27T18:17:57.769Z,28.75
2017-08-27T18:20:29.123Z,28.96
2017-08-27T18:23:00.429Z,28.67
2017-08-27T18:25:31.776Z,28.87
2017-08-27T18:28:02.739Z,28.98
2017-08-27T18:30:37.066Z,28.99
2017-08-27T18:33:07.318Z,28.70
2017-08-27T18:35:38.635Z,28.18
2017-08-27T18:38:09.205Z,27.63
2017-08-27T18:40:39.640Z,27.73
2017-08-27T18:43:10.572Z,27.57
2017-08-27T18:45:41.865Z,27.26
2017-08-27T18:48:11.647Z,27.07
2017-08-27T18:50:42.860Z,26.84
2017-08-27T18:55:51.658Z,26.75
2017-08-27T18:58:23.841Z,26.73
2017-08-27T19:00:55.348Z,26.44
2017-08-27T19:03:25.827Z,26.45
2017-08-27T19:05:58.792Z,26.52
2017-08-27T19:08:31.828Z,26.21
2017-08-27T19:11:02.122Z,25.80
2017-08-27T19:13:35.585Z,26.12
2017-08-27T19:16:06.671Z,25.98
2017-08-27T19:18:36.742Z,25.85
2017-08-27T19:21:06.912Z,25.67
2017-08-27T19:23:37.951Z,26.16
2017-08-27T19:26:08.286Z,25.86
2017-08-27T19:28:39.395Z,25.75
2017-08-27T19:31:10.061Z,25.69
2017-08-27T19:33:39.840Z,25.35
2017-08-27T19:36:10.470Z,25.45
2017-08-27T19:38:41.077Z,25.19
2017-08-27T19:41:11.330Z,25.34
2017-08-27T19:43:41.422Z,25.70
2017-08-27T19:46:37.524Z,25.48
2017-08-27T19:49:39.312Z,25.41
2017-08-27T19:52:10.230Z,25.48
2017-08-27T19:54:42.671Z,25.50
2017-08-27T19:57:12.789Z,25.50
2017-08-27T19:59:43.366Z,25.55
2017-08-27T20:02:13.927Z,24.89
2017-08-27T20:04:44.818Z,24.87
2017-08-27T20:15:48.786Z,25.90
2017-08-27T20:21:10.847Z,25.15
2017-08-27T20:23:40.972Z,25.10
2017-08-27T20:26:10.780Z,24.87
2017-08-27T20:28:40.589Z,24.98
2017-08-27T20:31:10.621Z,25.11
2017-08-27T20:33:40.364Z,25.11
2017-08-27T20:36:26.329Z,24.66
2017-08-27T20:38:57.292Z,25.04
2017-08-27T20:41:27.847Z,25.17
2017-08-27T20:44:24.853Z,25.46
2017-08-27T20:47:24.500Z,25.00
2017-08-27T20:50:03.315Z,25.29
2017-08-27T20:55:24.179Z,25.07
2017-08-27T20:57:56.223Z,24.87
2017-08-27T21:00:26.565Z,25.31
2017-08-27T21:03:00.118Z,25.20
2017-08-27T21:05:30.752Z,25.06
2017-08-27T21:08:00.871Z,25.05
2017-08-27T21:10:30.875Z,25.03
2017-08-27T21:13:01.376Z,24.70
2017-08-27T21:15:35.360Z,24.37
2017-08-27T21:18:15.649Z,24.44
2017-08-27T21:21:05.408Z,24.31
2017-08-27T21:23:52.353Z,23.52
2017-08-27T21:26:29.103Z,24.30
2017-08-27T21:29:05.475Z,23.61
2017-08-27T21:31:49.790Z,23.94
2017-08-27T21:34:19.754Z,24.47
2017-08-27T21:36:50.122Z,24.30
2017-08-27T21:39:20.052Z,24.31
2017-08-27T21:41:51.741Z,24.07
2017-08-27T21:44:24.629Z,23.78
2017-08-27T21:46:55.587Z,23.73
2017-08-27T21:49:27.512Z,24.02
2017-08-27T21:52:00.758Z,24.14
2017-08-27T21:54:32.668Z,23.73
2017-08-27T21:57:02.867Z,24.36
2017-08-27T21:59:32.725Z,24.33
2017-08-27T22:02:04.305Z,24.43
2017-08-27T22:04:36.484Z,23.75
2017-08-27T22:07:06.259Z,23.91
2017-08-27T22:09:36.567Z,23.98
2017-08-27T22:12:06.489Z,24.06
2017-08-27T22:14:36.444Z,24.04
2017-08-27T22:17:06.202Z,24.03
2017-08-27T22:19:36.310Z,24.90
2017-08-27T22:22:06.025Z,24.65
2017-08-27T22:24:35.742Z,24.24
2017-08-27T22:27:06.153Z,24.16
2017-08-27T22:29:36.641Z,24.02
2017-08-27T22:32:06.932Z,24.17
2017-08-27T22:34:37.096Z,23.98
2017-08-27T22:37:07.285Z,23.90
2017-08-27T22:39:37.577Z,23.67
2017-08-27T22:42:07.744Z,23.80
2017-08-27T22:44:37.698Z,23.81
2017-08-27T22:47:07.379Z,23.80
2017-08-27T22:49:39.090Z,24.19
2017-08-27T22:52:09.180Z,24.04
2017-08-27T22:54:39.098Z,23.80
2017-08-27T22:57:09.514Z,23.55
2017-08-27T22:59:39.724Z,23.66
2017-08-27T23:02:09.782Z,23.83
2017-08-27T23:04:39.775Z,23.72
2017-08-27T23:07:09.739Z,23.54
2017-08-27T23:09:39.440Z,23.51
2017-08-27T23:12:09.420Z,23.40
2017-08-27T23:14:39.117Z,23.49
2017-08-27T23:17:09.060Z,23.30
2017-08-27T23:19:39.291Z,23.27
2017-08-27T23:22:09.107Z,23.20
2017-08-27T23:24:39.059Z,23.23
2017-08-27T23:27:09.493Z,23.31
2017-08-27T23:29:39.296Z,23.29
2017-08-27T23:32:09.439Z,23.08
2017-08-27T23:34:39.629Z,23.14
2017-08-27T23:37:09.387Z,23.15
2017-08-27T23:39:39.346Z,23.09
2017-08-27T23:42:09.654Z,22.97
2017-08-27T23:44:39.320Z,23.01
2017-08-27T23:47:09.025Z,23.03
2017-08-27T23:49:39.156Z,23.05
2017-08-27T23:52:08.766Z,22.98
2017-08-27T23:54:38.448Z,22.90
2017-08-27T23:57:08.970Z,22.95
2017-08-27T23:59:38.962Z,22.98
